Caney, Kansas
Current Conditions -  °F | °C
As of 9:15 AM on Wednesday 26 Nov 2014 (Local Time) from KIDP Reporting Station
Clear Clear  
Wind Chill: 40°   Ceiling: Unl
Heat Index: 45°   Visibility: 10mi
Dew Point: 32°   Wind: 9mph
Humidity: 61%   Direction: 330°NNW
Pressure: 30.07"   Gusts: 17mph
Location:  37.01°N, 95.94°W
Report Text: KIDP 261515Z AUTO 33008G15KT 10SM CLR 07/00 A3007 RMK AO2
Loading
Personal Weather Stations






























Interactive Weather Map New forecast layout! Learn more

10-Day Weather Forecast

Advertisements
Track Severe Weather on mobile